FNF203 LFEV-EFTP
Flight info
| Callsign | FNF203 |
|---|---|
| Flight time | N/A |
| Altitude | 26000 |
| Route | REKLA DCT SUTAL DCT TIVUN DCT AGATI DCT KOKOR Z706 GESKA N851 KUBIS DCT BEDOS N851 PELUP Z226 NILUG DCT UXETI DCT NEBAB |
| Aircraft | PC12/L-SDFGRWY/S |
Departure
| Time | N/A |
|---|---|
| Airport | Gray Saint-Adrien Airfield (LFEV) |
Arrival
| Time | 2026-04-24 16:45 |
|---|---|
| Airport | Tampere-Pirkkala Airport (EFTP) |
| Time | Latitude | Longitude | Altitude | Speed | Heading |
|---|---|---|---|---|---|
| 2026-04-24 16:06 | 60.05276 | 19.77239 | 25890 ft | 259 kts | 33° |
| 2026-04-24 16:07 | 60.06682 | 19.79491 | 25881 ft | 259 kts | 33° |
| 2026-04-24 16:07 | 60.08087 | 19.81745 | 25884 ft | 258 kts | 33° |
| 2026-04-24 16:07 | 60.10890 | 19.86247 | 25893 ft | 258 kts | 33° |
| 2026-04-24 16:08 | 60.12288 | 19.88496 | 25885 ft | 258 kts | 33° |
| 2026-04-24 16:08 | 60.14845 | 19.93476 | 25880 ft | 263 kts | 49° |
| 2026-04-24 16:09 | 60.16960 | 19.99556 | 25882 ft | 264 kts | 49° |
| 2026-04-24 16:09 | 60.18003 | 20.02529 | 25883 ft | 264 kts | 49° |
| 2026-04-24 16:09 | 60.19058 | 20.05543 | 25880 ft | 264 kts | 49° |
| 2026-04-24 16:09 | 60.20114 | 20.08567 | 25880 ft | 264 kts | 49° |
| 2026-04-24 16:10 | 60.23275 | 20.17647 | 25877 ft | 264 kts | 49° |
| 2026-04-24 16:11 | 60.25377 | 20.23701 | 25868 ft | 264 kts | 49° |
| 2026-04-24 16:11 | 60.26426 | 20.26729 | 25871 ft | 263 kts | 49° |
| 2026-04-24 16:11 | 60.27466 | 20.29735 | 25871 ft | 263 kts | 49° |
| 2026-04-24 16:12 | 60.29564 | 20.35810 | 25859 ft | 263 kts | 48° |
| 2026-04-24 16:12 | 60.30607 | 20.38838 | 25863 ft | 263 kts | 48° |
| 2026-04-24 16:12 | 60.32692 | 20.44899 | 25862 ft | 263 kts | 48° |
| 2026-04-24 16:13 | 60.33733 | 20.47931 | 25852 ft | 263 kts | 48° |
| 2026-04-24 16:13 | 60.35810 | 20.53995 | 25855 ft | 262 kts | 48° |
| 2026-04-24 16:14 | 60.37884 | 20.60062 | 25853 ft | 262 kts | 48° |
| 2026-04-24 16:14 | 60.38918 | 20.63095 | 25855 ft | 262 kts | 48° |
| 2026-04-24 16:14 | 60.40982 | 20.69159 | 25856 ft | 261 kts | 48° |
| 2026-04-24 16:15 | 60.41679 | 20.71209 | 25856 ft | 261 kts | 48° |
| 2026-04-24 16:15 | 60.44067 | 20.78250 | 25848 ft | 261 kts | 48° |
| 2026-04-24 16:16 | 60.46117 | 20.84311 | 25843 ft | 261 kts | 47° |
| 2026-04-24 16:16 | 60.47138 | 20.87337 | 25850 ft | 260 kts | 47° |
| 2026-04-24 16:17 | 60.50197 | 20.96422 | 25844 ft | 260 kts | 47° |
| 2026-04-24 16:17 | 60.52235 | 21.02491 | 25612 ft | 264 kts | 47° |
| 2026-04-24 16:18 | 60.54323 | 21.08744 | 24877 ft | 267 kts | 47° |
| 2026-04-24 16:18 | 60.56386 | 21.14931 | 24161 ft | 263 kts | 47° |
| 2026-04-24 16:18 | 60.57410 | 21.18000 | 23814 ft | 262 kts | 47° |
| 2026-04-24 16:19 | 60.59435 | 21.24097 | 23205 ft | 256 kts | 46° |
| 2026-04-24 16:19 | 60.60426 | 21.27085 | 22930 ft | 253 kts | 46° |
| 2026-04-24 16:20 | 60.62380 | 21.32978 | 22382 ft | 250 kts | 46° |
| 2026-04-24 16:20 | 60.64309 | 21.38815 | 21853 ft | 247 kts | 46° |
| 2026-04-24 16:20 | 60.65264 | 21.41711 | 21585 ft | 246 kts | 46° |
| 2026-04-24 16:21 | 60.67168 | 21.47498 | 21066 ft | 245 kts | 45° |
| 2026-04-24 16:21 | 60.68114 | 21.50378 | 20815 ft | 244 kts | 45° |
| 2026-04-24 16:21 | 60.69058 | 21.53252 | 20554 ft | 244 kts | 45° |
| 2026-04-24 16:22 | 60.70001 | 21.56130 | 20299 ft | 244 kts | 45° |
| 2026-04-24 16:22 | 60.71894 | 21.61909 | 19807 ft | 248 kts | 45° |
| 2026-04-24 16:22 | 60.72864 | 21.64884 | 19558 ft | 249 kts | 45° |
| 2026-04-24 16:23 | 60.73817 | 21.67807 | 19315 ft | 250 kts | 45° |
| 2026-04-24 16:23 | 60.74790 | 21.70794 | 19073 ft | 251 kts | 45° |
| 2026-04-24 16:23 | 60.75756 | 21.73768 | 18831 ft | 251 kts | 45° |
| 2026-04-24 16:24 | 60.77690 | 21.79726 | 18356 ft | 251 kts | 45° |
| 2026-04-24 16:24 | 60.78641 | 21.82662 | 18125 ft | 251 kts | 45° |
| 2026-04-24 16:24 | 60.79619 | 21.85684 | 17850 ft | 251 kts | 45° |
| 2026-04-24 16:24 | 60.80565 | 21.88610 | 17588 ft | 254 kts | 45° |
| 2026-04-24 16:25 | 60.81585 | 21.91739 | 17314 ft | 265 kts | 46° |
| 2026-04-24 16:25 | 60.82612 | 21.94927 | 17052 ft | 271 kts | 47° |
| 2026-04-24 16:25 | 60.83653 | 21.98182 | 16790 ft | 274 kts | 47° |
| 2026-04-24 16:26 | 60.85758 | 22.04747 | 16268 ft | 276 kts | 47° |
| 2026-04-24 16:26 | 60.86811 | 22.08033 | 16012 ft | 275 kts | 47° |
| 2026-04-24 16:26 | 60.88898 | 22.14565 | 15503 ft | 272 kts | 47° |
| 2026-04-24 16:27 | 60.89931 | 22.17801 | 15251 ft | 270 kts | 47° |
| 2026-04-24 16:27 | 60.90958 | 22.21020 | 15001 ft | 268 kts | 47° |
| 2026-04-24 16:27 | 60.91974 | 22.24216 | 14758 ft | 266 kts | 47° |
| 2026-04-24 16:27 | 60.92984 | 22.27394 | 14510 ft | 265 kts | 47° |
| 2026-04-24 16:28 | 60.93975 | 22.30517 | 14269 ft | 263 kts | 47° |
| 2026-04-24 16:28 | 60.94973 | 22.33666 | 14022 ft | 262 kts | 48° |
| 2026-04-24 16:28 | 60.96957 | 22.39937 | 13541 ft | 260 kts | 48° |
| 2026-04-24 16:29 | 60.97942 | 22.43057 | 13269 ft | 260 kts | 48° |
| 2026-04-24 16:29 | 60.98924 | 22.46171 | 12998 ft | 259 kts | 48° |
| 2026-04-24 16:29 | 61.00878 | 22.52383 | 12467 ft | 258 kts | 49° |
| 2026-04-24 16:30 | 61.02821 | 22.58577 | 11944 ft | 257 kts | 49° |
| 2026-04-24 16:30 | 61.03787 | 22.61664 | 11682 ft | 256 kts | 49° |
| 2026-04-24 16:30 | 61.04751 | 22.64748 | 11426 ft | 255 kts | 49° |
| 2026-04-24 16:31 | 61.05710 | 22.67818 | 11170 ft | 254 kts | 49° |
| 2026-04-24 16:31 | 61.06664 | 22.70879 | 10920 ft | 253 kts | 49° |
| 2026-04-24 16:31 | 61.07545 | 22.74045 | 10665 ft | 256 kts | 54° |
| 2026-04-24 16:31 | 61.08315 | 22.77361 | 10540 ft | 253 kts | 57° |
| 2026-04-24 16:32 | 61.08801 | 22.79548 | 10454 ft | 252 kts | 57° |
| 2026-04-24 16:32 | 61.09812 | 22.83887 | 10291 ft | 249 kts | 56° |
| 2026-04-24 16:32 | 61.10578 | 22.87097 | 10172 ft | 249 kts | 56° |
| 2026-04-24 16:32 | 61.11336 | 22.90305 | 10045 ft | 248 kts | 56° |
| 2026-04-24 16:33 | 61.12089 | 22.93519 | 9922 ft | 248 kts | 56° |
| 2026-04-24 16:33 | 61.12841 | 22.96734 | 9803 ft | 248 kts | 56° |
| 2026-04-24 16:33 | 61.13586 | 22.99922 | 9731 ft | 246 kts | 56° |
| 2026-04-24 16:33 | 61.14314 | 23.03020 | 9290 ft | 252 kts | 56° |
| 2026-04-24 16:34 | 61.15051 | 23.06217 | 8715 ft | 236 kts | 57° |
| 2026-04-24 16:34 | 61.15752 | 23.09247 | 8070 ft | 228 kts | 57° |
| 2026-04-24 16:34 | 61.16440 | 23.12182 | 7419 ft | 225 kts | 57° |
| 2026-04-24 16:34 | 61.17120 | 23.15084 | 6792 ft | 223 kts | 57° |
| 2026-04-24 16:35 | 61.17791 | 23.17972 | 6157 ft | 221 kts | 58° |
| 2026-04-24 16:35 | 61.18454 | 23.20834 | 5499 ft | 220 kts | 59° |
| 2026-04-24 16:35 | 61.19116 | 23.23691 | 4842 ft | 220 kts | 60° |
| 2026-04-24 16:35 | 61.19775 | 23.26541 | 4195 ft | 215 kts | 60° |
| 2026-04-24 16:36 | 61.20414 | 23.29211 | 3653 ft | 196 kts | 57° |
| 2026-04-24 16:36 | 61.21165 | 23.31358 | 3265 ft | 179 kts | 36° |
| 2026-04-24 16:36 | 61.22215 | 23.32908 | 2886 ft | 192 kts | 30° |
| 2026-04-24 16:36 | 61.23360 | 23.34478 | 2490 ft | 202 kts | 29° |
| 2026-04-24 16:37 | 61.24547 | 23.36109 | 2101 ft | 207 kts | 30° |
| 2026-04-24 16:37 | 61.25725 | 23.37735 | 2000 ft | 197 kts | 30° |
| 2026-04-24 16:37 | 61.26465 | 23.38761 | 1998 ft | 190 kts | 30° |
| 2026-04-24 16:37 | 61.27902 | 23.40745 | 1997 ft | 181 kts | 30° |
| 2026-04-24 16:38 | 61.28945 | 23.42178 | 1993 ft | 181 kts | 29° |
| 2026-04-24 16:38 | 61.29995 | 23.43629 | 1997 ft | 185 kts | 30° |
| 2026-04-24 16:38 | 61.31021 | 23.45269 | 1995 ft | 188 kts | 38° |
| 2026-04-24 16:38 | 61.31985 | 23.47144 | 1993 ft | 191 kts | 39° |
| 2026-04-24 16:39 | 61.32956 | 23.49088 | 1992 ft | 192 kts | 40° |
| 2026-04-24 16:39 | 61.33837 | 23.50867 | 1982 ft | 163 kts | 40° |
| 2026-04-24 16:39 | 61.34564 | 23.52427 | 1962 ft | 141 kts | 44° |
| 2026-04-24 16:39 | 61.35088 | 23.54064 | 1890 ft | 131 kts | 56° |
| 2026-04-24 16:40 | 61.35501 | 23.55655 | 1767 ft | 127 kts | 55° |
| 2026-04-24 16:40 | 61.35941 | 23.57347 | 1639 ft | 136 kts | 56° |
| 2026-04-24 16:40 | 61.36358 | 23.59080 | 1698 ft | 126 kts | 58° |
| 2026-04-24 16:40 | 61.36744 | 23.60721 | 1797 ft | 122 kts | 56° |
| 2026-04-24 16:41 | 61.36985 | 23.61695 | 1843 ft | 109 kts | 55° |
| 2026-04-24 16:41 | 61.37338 | 23.63073 | 1809 ft | 108 kts | 55° |
| 2026-04-24 16:41 | 61.37591 | 23.64590 | 1658 ft | 113 kts | 65° |
| 2026-04-24 16:41 | 61.37845 | 23.66104 | 1644 ft | 105 kts | 63° |
| 2026-04-24 16:42 | 61.38117 | 23.67459 | 1684 ft | 100 kts | 48° |
| 2026-04-24 16:42 | 61.38621 | 23.68330 | 1690 ft | 93 kts | 13° |
| 2026-04-24 16:42 | 61.39263 | 23.68445 | 1577 ft | 95 kts | 348° |
| 2026-04-24 16:42 | 61.39887 | 23.68104 | 1381 ft | 93 kts | 340° |
| 2026-04-24 16:43 | 61.40489 | 23.67596 | 1151 ft | 92 kts | 334° |
| 2026-04-24 16:43 | 61.41028 | 23.67047 | 1026 ft | 76 kts | 332° |
| 2026-04-24 16:43 | 61.41458 | 23.66533 | 871 ft | 67 kts | 329° |
| 2026-04-24 16:43 | 61.41850 | 23.65987 | 819 ft | 68 kts | 326° |
| 2026-04-24 16:44 | 61.42141 | 23.65211 | 773 ft | 71 kts | 298° |
| 2026-04-24 16:44 | 61.42221 | 23.64185 | 645 ft | 75 kts | 271° |
| 2026-04-24 16:44 | 61.42031 | 23.63166 | 471 ft | 73 kts | 252° |
| 2026-04-24 16:44 | 61.41830 | 23.62277 | 380 ft | 63 kts | 254° |
| 2026-04-24 16:45 | 61.41669 | 23.61533 | 382 ft | 47 kts | 243° |
| 2026-04-24 16:45 | 61.41541 | 23.60972 | 382 ft | 42 kts | 244° |
| 2026-04-24 16:45 | 61.41403 | 23.60399 | 387 ft | 46 kts | 245° |
| 2026-04-24 16:45 | 61.41267 | 23.59803 | 386 ft | 43 kts | 247° |
| 2026-04-24 16:46 | 61.41154 | 23.59306 | 390 ft | 21 kts | 245° |
| 2026-04-24 16:46 | 61.41075 | 23.59212 | 391 ft | 22 kts | 165° |
| 2026-04-24 16:46 | 61.41009 | 23.59267 | 392 ft | 4 kts | 156° |
| 2026-04-24 16:46 | 61.40971 | 23.59379 | 393 ft | 14 kts | 90° |
| 2026-04-24 16:47 | 61.40976 | 23.59618 | 390 ft | 20 kts | 97° |
| 2026-04-24 16:47 | 61.40934 | 23.59945 | 383 ft | 26 kts | 115° |
| 2026-04-24 16:47 | 61.40823 | 23.60251 | 383 ft | 28 kts | 138° |
| 2026-04-24 16:47 | 61.40705 | 23.60573 | 383 ft | 29 kts | 102° |
| 2026-04-24 16:48 | 61.40726 | 23.60988 | 383 ft | 29 kts | 94° |
| 2026-04-24 16:48 | 61.40727 | 23.61389 | 383 ft | 26 kts | 62° |
| 2026-04-24 16:48 | 61.40838 | 23.61598 | 383 ft | 12 kts | 7° |
| 2026-04-24 16:48 | 61.40891 | 23.61743 | 383 ft | 15 kts | 69° |
| 2026-04-24 16:49 | 61.40880 | 23.61837 | 383 ft | 7 kts | 169° |
| 2026-04-24 16:49 | 61.40830 | 23.61841 | 383 ft | 4 kts | 158° |
| 2026-04-24 16:49 | 61.40829 | 23.61842 | 383 ft | 0 kts | 158° |
| 2026-04-24 16:49 | 61.40828 | 23.61843 | 383 ft | 0 kts | 158° |